sensor_id;sensor_type;location;lat;lon;timestamp;temperature;humidity
21834;DHT22;11079;51.092;3.458;2024-03-08T00:02:24;6.40;99.90
21834;DHT22;11079;51.092;3.458;2024-03-08T00:04:50;6.30;99.90
21834;DHT22;11079;51.092;3.458;2024-03-08T00:07:19;6.40;99.90
21834;DHT22;11079;51.092;3.458;2024-03-08T00:09:44;6.30;99.90
21834;DHT22;11079;51.092;3.458;2024-03-08T00:12:10;6.30;99.90
21834;DHT22;11079;51.092;3.458;2024-03-08T00:14:37;6.30;99.90
21834;DHT22;11079;51.092;3.458;2024-03-08T00:17:03;6.20;99.90
21834;DHT22;11079;51.092;3.458;2024-03-08T00:19:29;6.20;99.90
21834;DHT22;11079;51.092;3.458;2024-03-08T00:21:55;6.20;99.90
21834;DHT22;11079;51.092;3.458;2024-03-08T00:24:21;6.20;99.90
21834;DHT22;11079;51.092;3.458;2024-03-08T00:26:50;6.30;99.90
21834;DHT22;11079;51.092;3.458;2024-03-08T00:29:16;6.30;99.90
21834;DHT22;11079;51.092;3.458;2024-03-08T00:31:41;6.20;99.90
21834;DHT22;11079;51.092;3.458;2024-03-08T00:34:07;6.10;99.90
21834;DHT22;11079;51.092;3.458;2024-03-08T00:36:34;6.00;99.90
21834;DHT22;11079;51.092;3.458;2024-03-08T00:38:59;6.10;99.90
21834;DHT22;11079;51.092;3.458;2024-03-08T00:41:26;6.10;99.90
21834;DHT22;11079;51.092;3.458;2024-03-08T00:43:51;6.00;99.90
21834;DHT22;11079;51.092;3.458;2024-03-08T00:46:18;5.90;99.90
21834;DHT22;11079;51.092;3.458;2024-03-08T00:48:44;5.90;99.90
21834;DHT22;11079;51.092;3.458;2024-03-08T00:51:10;5.80;99.90
21834;DHT22;11079;51.092;3.458;2024-03-08T00:53:36;5.90;99.90
21834;DHT22;11079;51.092;3.458;2024-03-08T00:56:02;5.80;99.90
21834;DHT22;11079;51.092;3.458;2024-03-08T00:58:29;5.90;99.90
21834;DHT22;11079;51.092;3.458;2024-03-08T01:00:56;6.00;99.90
21834;DHT22;11079;51.092;3.458;2024-03-08T01:03:22;6.10;99.90
21834;DHT22;11079;51.092;3.458;2024-03-08T01:05:48;6.10;99.90
21834;DHT22;11079;51.092;3.458;2024-03-08T01:08:14;6.10;99.90
21834;DHT22;11079;51.092;3.458;2024-03-08T01:10:39;6.00;99.90
21834;DHT22;11079;51.092;3.458;2024-03-08T01:13:05;5.90;99.90
21834;DHT22;11079;51.092;3.458;2024-03-08T01:15:30;5.80;99.90
21834;DHT22;11079;51.092;3.458;2024-03-08T01:17:56;5.70;99.90
21834;DHT22;11079;51.092;3.458;2024-03-08T01:20:22;5.80;99.90
21834;DHT22;11079;51.092;3.458;2024-03-08T01:22:49;5.80;99.90
21834;DHT22;11079;51.092;3.458;2024-03-08T01:25:15;5.80;99.90
21834;DHT22;11079;51.092;3.458;2024-03-08T01:27:41;5.70;99.90
21834;DHT22;11079;51.092;3.458;2024-03-08T01:30:07;5.70;99.90
21834;DHT22;11079;51.092;3.458;2024-03-08T01:32:35;5.50;99.90
21834;DHT22;11079;51.092;3.458;2024-03-08T01:35:01;5.50;99.90
21834;DHT22;11079;51.092;3.458;2024-03-08T01:37:28;5.50;99.90
21834;DHT22;11079;51.092;3.458;2024-03-08T01:39:54;5.50;99.90
21834;DHT22;11079;51.092;3.458;2024-03-08T01:42:20;5.60;99.90
21834;DHT22;11079;51.092;3.458;2024-03-08T01:44:47;5.60;99.90
21834;DHT22;11079;51.092;3.458;2024-03-08T01:47:13;5.60;99.90
21834;DHT22;11079;51.092;3.458;2024-03-08T01:49:38;5.70;99.90
21834;DHT22;11079;51.092;3.458;2024-03-08T01:52:05;5.80;99.90
21834;DHT22;11079;51.092;3.458;2024-03-08T01:54:32;5.80;99.90
21834;DHT22;11079;51.092;3.458;2024-03-08T01:56:59;5.80;99.90
21834;DHT22;11079;51.092;3.458;2024-03-08T01:59:25;5.70;99.90
21834;DHT22;11079;51.092;3.458;2024-03-08T02:01:55;5.70;99.90
21834;DHT22;11079;51.092;3.458;2024-03-08T02:04:21;5.60;99.90
21834;DHT22;11079;51.092;3.458;2024-03-08T02:06:47;5.40;99.90
21834;DHT22;11079;51.092;3.458;2024-03-08T02:09:13;5.30;99.90
21834;DHT22;11079;51.092;3.458;2024-03-08T02:11:41;5.30;99.90
21834;DHT22;11079;51.092;3.458;2024-03-08T02:14:08;5.30;99.90
21834;DHT22;11079;51.092;3.458;2024-03-08T02:16:34;5.30;99.90
21834;DHT22;11079;51.092;3.458;2024-03-08T02:19:00;5.40;99.90
21834;DHT22;11079;51.092;3.458;2024-03-08T02:21:29;5.40;99.90
21834;DHT22;11079;51.092;3.458;2024-03-08T02:23:56;5.40;99.90
21834;DHT22;11079;51.092;3.458;2024-03-08T02:26:23;5.40;99.90
21834;DHT22;11079;51.092;3.458;2024-03-08T02:28:49;5.40;99.90
21834;DHT22;11079;51.092;3.458;2024-03-08T02:31:15;5.40;99.90
21834;DHT22;11079;51.092;3.458;2024-03-08T02:33:40;5.30;99.90
21834;DHT22;11079;51.092;3.458;2024-03-08T02:36:08;5.40;99.90
21834;DHT22;11079;51.092;3.458;2024-03-08T02:38:33;5.40;99.90
21834;DHT22;11079;51.092;3.458;2024-03-08T02:40:59;5.30;99.90
21834;DHT22;11079;51.092;3.458;2024-03-08T02:43:26;5.30;99.90
21834;DHT22;11079;51.092;3.458;2024-03-08T02:45:51;5.30;99.90
21834;DHT22;11079;51.092;3.458;2024-03-08T02:48:18;5.20;99.90
21834;DHT22;11079;51.092;3.458;2024-03-08T02:50:44;5.30;99.90
21834;DHT22;11079;51.092;3.458;2024-03-08T02:53:10;5.20;99.90
21834;DHT22;11079;51.092;3.458;2024-03-08T02:55:40;5.20;99.90
21834;DHT22;11079;51.092;3.458;2024-03-08T02:58:07;5.20;99.90
21834;DHT22;11079;51.092;3.458;2024-03-08T03:00:36;5.30;99.90
21834;DHT22;11079;51.092;3.458;2024-03-08T03:03:02;5.20;99.90
21834;DHT22;11079;51.092;3.458;2024-03-08T03:05:30;5.10;99.90
21834;DHT22;11079;51.092;3.458;2024-03-08T03:07:55;5.10;99.90
21834;DHT22;11079;51.092;3.458;2024-03-08T03:10:29;5.00;99.90
21834;DHT22;11079;51.092;3.458;2024-03-08T03:12:55;5.00;99.90
21834;DHT22;11079;51.092;3.458;2024-03-08T03:15:26;5.10;99.90
21834;DHT22;11079;51.092;3.458;2024-03-08T03:17:51;5.00;99.90
21834;DHT22;11079;51.092;3.458;2024-03-08T03:20:18;5.00;99.90
21834;DHT22;11079;51.092;3.458;2024-03-08T03:22:58;4.90;99.90
21834;DHT22;11079;51.092;3.458;2024-03-08T03:25:26;4.90;99.90
21834;DHT22;11079;51.092;3.458;2024-03-08T03:27:58;4.80;99.90
21834;DHT22;11079;51.092;3.458;2024-03-08T03:30:24;4.80;99.90
21834;DHT22;11079;51.092;3.458;2024-03-08T03:32:52;4.70;99.90
21834;DHT22;11079;51.092;3.458;2024-03-08T03:35:23;4.90;99.90
21834;DHT22;11079;51.092;3.458;2024-03-08T03:37:49;4.90;99.90
21834;DHT22;11079;51.092;3.458;2024-03-08T03:40:39;4.80;99.90
21834;DHT22;11079;51.092;3.458;2024-03-08T03:43:06;4.70;99.90
21834;DHT22;11079;51.092;3.458;2024-03-08T03:45:32;4.80;99.90
21834;DHT22;11079;51.092;3.458;2024-03-08T03:48:02;4.80;99.90
21834;DHT22;11079;51.092;3.458;2024-03-08T03:50:28;4.90;99.90
21834;DHT22;11079;51.092;3.458;2024-03-08T03:52:54;4.90;99.90
21834;DHT22;11079;51.092;3.458;2024-03-08T03:55:19;4.90;99.90
21834;DHT22;11079;51.092;3.458;2024-03-08T03:57:47;4.90;99.90
21834;DHT22;11079;51.092;3.458;2024-03-08T04:00:13;4.90;99.90
21834;DHT22;11079;51.092;3.458;2024-03-08T04:02:39;4.80;99.90
21834;DHT22;11079;51.092;3.458;2024-03-08T04:05:07;4.70;99.90
21834;DHT22;11079;51.092;3.458;2024-03-08T04:07:33;4.60;99.90
21834;DHT22;11079;51.092;3.458;2024-03-08T04:10:00;4.60;99.90
21834;DHT22;11079;51.092;3.458;2024-03-08T04:12:26;4.60;99.90
21834;DHT22;11079;51.092;3.458;2024-03-08T04:14:54;4.70;99.90
21834;DHT22;11079;51.092;3.458;2024-03-08T04:17:21;4.60;99.90
21834;DHT22;11079;51.092;3.458;2024-03-08T04:19:47;4.60;99.90
21834;DHT22;11079;51.092;3.458;2024-03-08T04:22:14;4.50;99.90
21834;DHT22;11079;51.092;3.458;2024-03-08T04:24:40;4.50;99.90
21834;DHT22;11079;51.092;3.458;2024-03-08T04:27:09;4.40;99.90
21834;DHT22;11079;51.092;3.458;2024-03-08T04:29:35;4.50;99.90
21834;DHT22;11079;51.092;3.458;2024-03-08T04:32:03;4.50;99.90
21834;DHT22;11079;51.092;3.458;2024-03-08T04:34:30;4.50;99.90
21834;DHT22;11079;51.092;3.458;2024-03-08T04:36:57;4.60;99.90
21834;DHT22;11079;51.092;3.458;2024-03-08T04:39:25;4.40;99.90
21834;DHT22;11079;51.092;3.458;2024-03-08T04:41:54;4.40;99.90
21834;DHT22;11079;51.092;3.458;2024-03-08T04:44:22;4.50;99.90
21834;DHT22;11079;51.092;3.458;2024-03-08T04:46:50;4.50;99.90
21834;DHT22;11079;51.092;3.458;2024-03-08T04:49:16;4.40;99.90
21834;DHT22;11079;51.092;3.458;2024-03-08T04:51:46;4.40;99.90
21834;DHT22;11079;51.092;3.458;2024-03-08T04:54:11;4.40;99.90
21834;DHT22;11079;51.092;3.458;2024-03-08T04:56:37;4.40;99.90
21834;DHT22;11079;51.092;3.458;2024-03-08T04:59:02;4.40;99.90
21834;DHT22;11079;51.092;3.458;2024-03-08T05:01:28;4.30;99.90
21834;DHT22;11079;51.092;3.458;2024-03-08T05:03:54;4.20;99.90
21834;DHT22;11079;51.092;3.458;2024-03-08T05:06:20;4.30;99.90
21834;DHT22;11079;51.092;3.458;2024-03-08T05:08:46;4.30;99.90
21834;DHT22;11079;51.092;3.458;2024-03-08T05:11:12;4.30;99.90
21834;DHT22;11079;51.092;3.458;2024-03-08T05:13:41;4.30;99.90
21834;DHT22;11079;51.092;3.458;2024-03-08T05:16:07;4.30;99.90
21834;DHT22;11079;51.092;3.458;2024-03-08T05:18:34;4.20;99.90
21834;DHT22;11079;51.092;3.458;2024-03-08T05:21:01;4.20;99.90
21834;DHT22;11079;51.092;3.458;2024-03-08T05:23:29;4.30;99.90
21834;DHT22;11079;51.092;3.458;2024-03-08T05:25:55;4.20;99.90
21834;DHT22;11079;51.092;3.458;2024-03-08T05:28:21;4.10;99.90
21834;DHT22;11079;51.092;3.458;2024-03-08T05:30:46;4.10;99.90
21834;DHT22;11079;51.092;3.458;2024-03-08T05:33:12;4.20;99.90
21834;DHT22;11079;51.092;3.458;2024-03-08T05:35:40;4.10;99.90
21834;DHT22;11079;51.092;3.458;2024-03-08T05:38:05;4.10;99.90
21834;DHT22;11079;51.092;3.458;2024-03-08T05:40:32;3.90;99.90
21834;DHT22;11079;51.092;3.458;2024-03-08T05:42:59;3.90;99.90
21834;DHT22;11079;51.092;3.458;2024-03-08T05:45:25;4.00;99.90
21834;DHT22;11079;51.092;3.458;2024-03-08T05:47:54;3.90;99.90
21834;DHT22;11079;51.092;3.458;2024-03-08T05:50:22;3.80;99.90
21834;DHT22;11079;51.092;3.458;2024-03-08T05:52:48;4.00;99.90
21834;DHT22;11079;51.092;3.458;2024-03-08T05:55:13;4.00;99.90
21834;DHT22;11079;51.092;3.458;2024-03-08T05:57:42;4.10;99.90
21834;DHT22;11079;51.092;3.458;2024-03-08T06:00:10;4.30;99.90
21834;DHT22;11079;51.092;3.458;2024-03-08T06:02:37;4.20;99.90
21834;DHT22;11079;51.092;3.458;2024-03-08T06:05:19;4.10;99.90
21834;DHT22;11079;51.092;3.458;2024-03-08T06:07:45;3.80;99.90
21834;DHT22;11079;51.092;3.458;2024-03-08T06:10:11;3.90;99.90
21834;DHT22;11079;51.092;3.458;2024-03-08T06:12:40;3.90;99.90
21834;DHT22;11079;51.092;3.458;2024-03-08T06:15:10;4.00;99.90
21834;DHT22;11079;51.092;3.458;2024-03-08T06:17:36;4.00;99.90
21834;DHT22;11079;51.092;3.458;2024-03-08T06:20:02;3.90;99.90
21834;DHT22;11079;51.092;3.458;2024-03-08T06:22:29;3.90;99.90
21834;DHT22;11079;51.092;3.458;2024-03-08T06:24:56;3.90;99.90
21834;DHT22;11079;51.092;3.458;2024-03-08T06:27:22;3.90;99.90
21834;DHT22;11079;51.092;3.458;2024-03-08T06:29:47;3.90;99.90
21834;DHT22;11079;51.092;3.458;2024-03-08T06:32:14;3.90;99.90
21834;DHT22;11079;51.092;3.458;2024-03-08T06:34:41;4.00;99.90
21834;DHT22;11079;51.092;3.458;2024-03-08T06:37:06;4.10;99.90
21834;DHT22;11079;51.092;3.458;2024-03-08T06:39:32;4.00;99.90
21834;DHT22;11079;51.092;3.458;2024-03-08T06:41:59;4.30;99.90
21834;DHT22;11079;51.092;3.458;2024-03-08T06:44:26;4.60;99.90
21834;DHT22;11079;51.092;3.458;2024-03-08T06:46:52;4.80;99.90
21834;DHT22;11079;51.092;3.458;2024-03-08T06:49:18;5.00;99.90
21834;DHT22;11079;51.092;3.458;2024-03-08T06:51:43;5.40;99.90
21834;DHT22;11079;51.092;3.458;2024-03-08T06:54:09;5.60;99.90
21834;DHT22;11079;51.092;3.458;2024-03-08T06:56:35;5.80;99.90
21834;DHT22;11079;51.092;3.458;2024-03-08T06:59:00;6.20;99.90
21834;DHT22;11079;51.092;3.458;2024-03-08T07:01:29;6.60;99.90
21834;DHT22;11079;51.092;3.458;2024-03-08T07:04:00;6.80;99.90
21834;DHT22;11079;51.092;3.458;2024-03-08T07:06:28;6.90;99.90
21834;DHT22;11079;51.092;3.458;2024-03-08T07:08:54;7.20;99.90
21834;DHT22;11079;51.092;3.458;2024-03-08T07:11:20;7.40;99.90
21834;DHT22;11079;51.092;3.458;2024-03-08T07:13:46;7.70;99.90
21834;DHT22;11079;51.092;3.458;2024-03-08T07:16:11;7.80;99.90
21834;DHT22;11079;51.092;3.458;2024-03-08T07:18:37;8.10;99.90
21834;DHT22;11079;51.092;3.458;2024-03-08T07:21:09;8.60;99.90
21834;DHT22;11079;51.092;3.458;2024-03-08T07:23:35;8.90;99.90
21834;DHT22;11079;51.092;3.458;2024-03-08T07:26:28;8.80;99.90
21834;DHT22;11079;51.092;3.458;2024-03-08T07:28:54;9.10;99.90
21834;DHT22;11079;51.092;3.458;2024-03-08T07:31:20;9.50;99.90
21834;DHT22;11079;51.092;3.458;2024-03-08T07:34:00;9.70;99.90
21834;DHT22;11079;51.092;3.458;2024-03-08T07:36:26;9.70;99.90
21834;DHT22;11079;51.092;3.458;2024-03-08T07:38:51;9.60;99.90
21834;DHT22;11079;51.092;3.458;2024-03-08T07:41:17;9.50;99.90
21834;DHT22;11079;51.092;3.458;2024-03-08T07:43:42;10.00;99.90
21834;DHT22;11079;51.092;3.458;2024-03-08T07:46:09;9.60;99.90
21834;DHT22;11079;51.092;3.458;2024-03-08T07:48:41;9.50;99.90
21834;DHT22;11079;51.092;3.458;2024-03-08T07:51:08;9.80;99.90
21834;DHT22;11079;51.092;3.458;2024-03-08T07:53:34;10.30;99.90
21834;DHT22;11079;51.092;3.458;2024-03-08T07:56:00;10.70;99.90
21834;DHT22;11079;51.092;3.458;2024-03-08T07:58:26;10.90;99.90
21834;DHT22;11079;51.092;3.458;2024-03-08T08:00:52;10.80;99.90
21834;DHT22;11079;51.092;3.458;2024-03-08T08:03:17;10.70;99.90
21834;DHT22;11079;51.092;3.458;2024-03-08T08:05:46;10.70;99.90
21834;DHT22;11079;51.092;3.458;2024-03-08T08:08:12;10.50;99.90
21834;DHT22;11079;51.092;3.458;2024-03-08T08:10:38;10.20;99.90
21834;DHT22;11079;51.092;3.458;2024-03-08T08:13:03;10.20;99.90
21834;DHT22;11079;51.092;3.458;2024-03-08T08:15:32;10.90;99.90
21834;DHT22;11079;51.092;3.458;2024-03-08T08:18:00;11.50;99.90
21834;DHT22;11079;51.092;3.458;2024-03-08T08:20:28;11.30;99.90
21834;DHT22;11079;51.092;3.458;2024-03-08T08:22:54;11.20;99.90
21834;DHT22;11079;51.092;3.458;2024-03-08T08:25:20;11.70;99.90
21834;DHT22;11079;51.092;3.458;2024-03-08T08:27:49;11.60;99.90
21834;DHT22;11079;51.092;3.458;2024-03-08T08:30:15;11.90;99.90
21834;DHT22;11079;51.092;3.458;2024-03-08T08:32:41;11.80;99.90
21834;DHT22;11079;51.092;3.458;2024-03-08T08:35:08;11.70;99.90
21834;DHT22;11079;51.092;3.458;2024-03-08T08:37:34;12.30;99.90
21834;DHT22;11079;51.092;3.458;2024-03-08T08:40:03;11.80;99.90
21834;DHT22;11079;51.092;3.458;2024-03-08T08:42:36;12.20;99.90
21834;DHT22;11079;51.092;3.458;2024-03-08T08:45:02;12.60;99.90
21834;DHT22;11079;51.092;3.458;2024-03-08T08:47:28;12.80;99.90
21834;DHT22;11079;51.092;3.458;2024-03-08T08:49:53;13.60;99.90
21834;DHT22;11079;51.092;3.458;2024-03-08T08:52:19;14.40;99.90
21834;DHT22;11079;51.092;3.458;2024-03-08T08:54:45;14.30;99.90
21834;DHT22;11079;51.092;3.458;2024-03-08T08:57:11;14.30;99.90
21834;DHT22;11079;51.092;3.458;2024-03-08T08:59:37;14.60;99.90
21834;DHT22;11079;51.092;3.458;2024-03-08T09:02:06;14.30;99.90
21834;DHT22;11079;51.092;3.458;2024-03-08T09:04:34;13.90;99.90
21834;DHT22;11079;51.092;3.458;2024-03-08T09:07:01;14.30;99.90
21834;DHT22;11079;51.092;3.458;2024-03-08T09:09:27;13.80;99.90
21834;DHT22;11079;51.092;3.458;2024-03-08T09:11:52;13.80;99.90
21834;DHT22;11079;51.092;3.458;2024-03-08T09:14:19;13.80;99.90
21834;DHT22;11079;51.092;3.458;2024-03-08T09:16:45;13.70;99.90
21834;DHT22;11079;51.092;3.458;2024-03-08T09:19:13;13.70;99.90
21834;DHT22;11079;51.092;3.458;2024-03-08T09:21:38;13.90;99.90
21834;DHT22;11079;51.092;3.458;2024-03-08T09:24:05;14.20;99.90
21834;DHT22;11079;51.092;3.458;2024-03-08T09:26:32;15.50;99.90
21834;DHT22;11079;51.092;3.458;2024-03-08T09:28:59;16.90;99.90
21834;DHT22;11079;51.092;3.458;2024-03-08T09:31:25;17.20;99.90
21834;DHT22;11079;51.092;3.458;2024-03-08T09:33:51;17.00;99.90
21834;DHT22;11079;51.092;3.458;2024-03-08T09:36:17;16.50;99.90
21834;DHT22;11079;51.092;3.458;2024-03-08T09:38:44;16.80;99.90
21834;DHT22;11079;51.092;3.458;2024-03-08T09:41:10;16.30;99.90
21834;DHT22;11079;51.092;3.458;2024-03-08T09:43:36;16.50;99.90
21834;DHT22;11079;51.092;3.458;2024-03-08T09:46:03;16.20;99.90
21834;DHT22;11079;51.092;3.458;2024-03-08T09:48:29;15.70;99.90
21834;DHT22;11079;51.092;3.458;2024-03-08T09:50:55;15.50;99.90
21834;DHT22;11079;51.092;3.458;2024-03-08T09:53:22;15.70;99.90
21834;DHT22;11079;51.092;3.458;2024-03-08T09:55:49;16.40;99.90
21834;DHT22;11079;51.092;3.458;2024-03-08T09:58:16;16.90;99.90
21834;DHT22;11079;51.092;3.458;2024-03-08T10:00:52;17.40;99.90
21834;DHT22;11079;51.092;3.458;2024-03-08T10:03:19;17.50;99.90
21834;DHT22;11079;51.092;3.458;2024-03-08T10:05:45;17.00;99.90
21834;DHT22;11079;51.092;3.458;2024-03-08T10:08:12;17.00;99.90
21834;DHT22;11079;51.092;3.458;2024-03-08T10:10:38;16.60;99.90
21834;DHT22;11079;51.092;3.458;2024-03-08T10:13:08;16.60;99.90
21834;DHT22;11079;51.092;3.458;2024-03-08T10:15:35;17.30;99.90
21834;DHT22;11079;51.092;3.458;2024-03-08T10:18:00;18.20;99.90
21834;DHT22;11079;51.092;3.458;2024-03-08T10:20:31;17.80;99.90
21834;DHT22;11079;51.092;3.458;2024-03-08T10:23:03;19.00;99.90
21834;DHT22;11079;51.092;3.458;2024-03-08T10:25:31;19.10;99.90
21834;DHT22;11079;51.092;3.458;2024-03-08T10:27:57;18.70;99.90
21834;DHT22;11079;51.092;3.458;2024-03-08T10:30:23;17.80;99.90
21834;DHT22;11079;51.092;3.458;2024-03-08T10:32:49;16.50;99.90
21834;DHT22;11079;51.092;3.458;2024-03-08T10:35:15;15.90;99.90
21834;DHT22;11079;51.092;3.458;2024-03-08T10:37:46;16.00;99.90
21834;DHT22;11079;51.092;3.458;2024-03-08T10:40:19;16.70;99.90
21834;DHT22;11079;51.092;3.458;2024-03-08T10:42:53;16.90;99.90
21834;DHT22;11079;51.092;3.458;2024-03-08T10:45:36;16.60;99.90
21834;DHT22;11079;51.092;3.458;2024-03-08T10:48:31;16.20;99.90
21834;DHT22;11079;51.092;3.458;2024-03-08T10:51:02;16.90;99.90
21834;DHT22;11079;51.092;3.458;2024-03-08T10:53:29;17.10;99.90
21834;DHT22;11079;51.092;3.458;2024-03-08T10:55:57;16.70;99.90
21834;DHT22;11079;51.092;3.458;2024-03-08T10:58:24;16.40;99.90
21834;DHT22;11079;51.092;3.458;2024-03-08T11:00:57;16.70;99.90
21834;DHT22;11079;51.092;3.458;2024-03-08T11:08:48;16.60;99.90
21834;DHT22;11079;51.092;3.458;2024-03-08T11:11:29;16.20;99.90
21834;DHT22;11079;51.092;3.458;2024-03-08T11:13:56;16.70;99.90
21834;DHT22;11079;51.092;3.458;2024-03-08T11:18:59;16.40;99.90
21834;DHT22;11079;51.092;3.458;2024-03-08T11:21:30;16.20;99.90
21834;DHT22;11079;51.092;3.458;2024-03-08T11:24:12;16.10;99.90
21834;DHT22;11079;51.092;3.458;2024-03-08T11:26:42;16.20;99.90
21834;DHT22;11079;51.092;3.458;2024-03-08T11:32:15;16.40;99.90
21834;DHT22;11079;51.092;3.458;2024-03-08T11:34:46;16.20;99.90
21834;DHT22;11079;51.092;3.458;2024-03-08T11:37:22;16.30;99.90
21834;DHT22;11079;51.092;3.458;2024-03-08T11:39:49;16.90;99.90
21834;DHT22;11079;51.092;3.458;2024-03-08T11:42:15;16.80;99.90
21834;DHT22;11079;51.092;3.458;2024-03-08T11:44:43;16.60;99.90
21834;DHT22;11079;51.092;3.458;2024-03-08T11:47:10;16.30;99.90
21834;DHT22;11079;51.092;3.458;2024-03-08T11:49:37;16.40;99.90
21834;DHT22;11079;51.092;3.458;2024-03-08T11:52:03;16.80;99.90
21834;DHT22;11079;51.092;3.458;2024-03-08T11:54:29;16.60;99.90
21834;DHT22;11079;51.092;3.458;2024-03-08T11:56:58;16.50;99.90
21834;DHT22;11079;51.092;3.458;2024-03-08T11:59:30;17.20;99.90
21834;DHT22;11079;51.092;3.458;2024-03-08T12:02:05;17.90;99.90
21834;DHT22;11079;51.092;3.458;2024-03-08T12:04:31;18.00;99.90
21834;DHT22;11079;51.092;3.458;2024-03-08T12:07:00;17.10;99.90
21834;DHT22;11079;51.092;3.458;2024-03-08T12:09:37;17.10;99.90
21834;DHT22;11079;51.092;3.458;2024-03-08T12:12:03;17.00;99.90
21834;DHT22;11079;51.092;3.458;2024-03-08T12:14:30;17.10;99.90
21834;DHT22;11079;51.092;3.458;2024-03-08T12:16:57;17.00;99.90
21834;DHT22;11079;51.092;3.458;2024-03-08T12:19:23;17.60;99.90
21834;DHT22;11079;51.092;3.458;2024-03-08T12:21:54;17.00;99.90
21834;DHT22;11079;51.092;3.458;2024-03-08T12:24:20;17.00;99.90
21834;DHT22;11079;51.092;3.458;2024-03-08T12:26:47;16.80;99.90
21834;DHT22;11079;51.092;3.458;2024-03-08T12:29:18;16.80;99.90
21834;DHT22;11079;51.092;3.458;2024-03-08T12:31:46;17.00;99.90
21834;DHT22;11079;51.092;3.458;2024-03-08T12:34:13;17.00;99.90
21834;DHT22;11079;51.092;3.458;2024-03-08T12:36:50;17.40;99.90
21834;DHT22;11079;51.092;3.458;2024-03-08T12:39:20;17.40;99.90
21834;DHT22;11079;51.092;3.458;2024-03-08T12:41:51;17.30;99.90
21834;DHT22;11079;51.092;3.458;2024-03-08T12:44:17;17.10;99.90
21834;DHT22;11079;51.092;3.458;2024-03-08T12:46:44;17.30;99.90
21834;DHT22;11079;51.092;3.458;2024-03-08T12:49:10;17.10;99.90
21834;DHT22;11079;51.092;3.458;2024-03-08T12:51:38;17.60;99.90
21834;DHT22;11079;51.092;3.458;2024-03-08T12:54:05;17.70;99.90
21834;DHT22;11079;51.092;3.458;2024-03-08T12:56:33;17.50;99.90
21834;DHT22;11079;51.092;3.458;2024-03-08T12:59:00;17.70;99.90
21834;DHT22;11079;51.092;3.458;2024-03-08T13:01:26;17.90;99.90
21834;DHT22;11079;51.092;3.458;2024-03-08T13:03:53;17.80;99.90
21834;DHT22;11079;51.092;3.458;2024-03-08T13:06:20;18.30;99.90
21834;DHT22;11079;51.092;3.458;2024-03-08T13:08:50;18.20;99.90
21834;DHT22;11079;51.092;3.458;2024-03-08T13:11:22;17.70;99.90
21834;DHT22;11079;51.092;3.458;2024-03-08T13:13:49;17.50;99.90
21834;DHT22;11079;51.092;3.458;2024-03-08T13:16:15;17.70;99.90
21834;DHT22;11079;51.092;3.458;2024-03-08T13:18:44;18.00;99.90
21834;DHT22;11079;51.092;3.458;2024-03-08T13:21:10;17.50;99.90
21834;DHT22;11079;51.092;3.458;2024-03-08T13:23:40;17.50;99.90
21834;DHT22;11079;51.092;3.458;2024-03-08T13:26:07;17.20;99.90
21834;DHT22;11079;51.092;3.458;2024-03-08T13:28:32;17.00;99.90
21834;DHT22;11079;51.092;3.458;2024-03-08T13:31:03;16.90;99.90
21834;DHT22;11079;51.092;3.458;2024-03-08T13:33:33;17.00;99.90
21834;DHT22;11079;51.092;3.458;2024-03-08T13:36:08;17.00;99.90
21834;DHT22;11079;51.092;3.458;2024-03-08T13:38:45;17.20;99.90
21834;DHT22;11079;51.092;3.458;2024-03-08T13:41:13;17.40;99.90
21834;DHT22;11079;51.092;3.458;2024-03-08T13:43:49;18.20;99.90
21834;DHT22;11079;51.092;3.458;2024-03-08T13:46:15;18.40;99.90
21834;DHT22;11079;51.092;3.458;2024-03-08T13:48:41;18.20;99.90
21834;DHT22;11079;51.092;3.458;2024-03-08T13:51:07;17.50;99.90
21834;DHT22;11079;51.092;3.458;2024-03-08T13:53:35;17.50;99.90
21834;DHT22;11079;51.092;3.458;2024-03-08T13:56:04;17.10;99.90
21834;DHT22;11079;51.092;3.458;2024-03-08T13:58:31;17.10;99.90
21834;DHT22;11079;51.092;3.458;2024-03-08T14:00:56;17.00;99.90
21834;DHT22;11079;51.092;3.458;2024-03-08T14:03:22;16.70;99.90
21834;DHT22;11079;51.092;3.458;2024-03-08T14:05:50;17.10;99.90
21834;DHT22;11079;51.092;3.458;2024-03-08T14:08:15;17.10;99.90
21834;DHT22;11079;51.092;3.458;2024-03-08T14:10:43;17.20;99.90
21834;DHT22;11079;51.092;3.458;2024-03-08T14:13:09;17.20;99.90
21834;DHT22;11079;51.092;3.458;2024-03-08T14:15:34;16.60;99.90
21834;DHT22;11079;51.092;3.458;2024-03-08T14:18:01;16.50;99.90
21834;DHT22;11079;51.092;3.458;2024-03-08T14:20:27;16.70;99.90
21834;DHT22;11079;51.092;3.458;2024-03-08T14:22:54;16.70;99.90
21834;DHT22;11079;51.092;3.458;2024-03-08T14:25:25;16.30;99.90
21834;DHT22;11079;51.092;3.458;2024-03-08T14:27:53;16.40;99.90
21834;DHT22;11079;51.092;3.458;2024-03-08T14:30:19;16.40;99.90
21834;DHT22;11079;51.092;3.458;2024-03-08T14:33:07;16.40;99.90
21834;DHT22;11079;51.092;3.458;2024-03-08T14:35:40;16.50;99.90
21834;DHT22;11079;51.092;3.458;2024-03-08T14:38:06;16.70;99.90
21834;DHT22;11079;51.092;3.458;2024-03-08T14:40:39;16.30;99.90
21834;DHT22;11079;51.092;3.458;2024-03-08T14:43:05;16.30;99.90
21834;DHT22;11079;51.092;3.458;2024-03-08T14:45:31;16.40;99.90
21834;DHT22;11079;51.092;3.458;2024-03-08T14:47:57;16.60;99.90
21834;DHT22;11079;51.092;3.458;2024-03-08T14:50:24;16.80;99.90
21834;DHT22;11079;51.092;3.458;2024-03-08T14:52:50;16.20;99.90
21834;DHT22;11079;51.092;3.458;2024-03-08T14:55:16;16.20;99.90
21834;DHT22;11079;51.092;3.458;2024-03-08T14:57:45;16.00;99.90
21834;DHT22;11079;51.092;3.458;2024-03-08T15:00:12;15.80;99.90
21834;DHT22;11079;51.092;3.458;2024-03-08T15:02:58;15.90;99.90
21834;DHT22;11079;51.092;3.458;2024-03-08T15:05:23;15.90;99.90
21834;DHT22;11079;51.092;3.458;2024-03-08T15:07:52;16.00;99.90
21834;DHT22;11079;51.092;3.458;2024-03-08T15:10:19;16.20;99.90
21834;DHT22;11079;51.092;3.458;2024-03-08T15:12:48;16.30;99.90
21834;DHT22;11079;51.092;3.458;2024-03-08T15:15:14;16.00;99.90
21834;DHT22;11079;51.092;3.458;2024-03-08T15:17:44;16.00;99.90
21834;DHT22;11079;51.092;3.458;2024-03-08T15:20:13;15.50;99.90
21834;DHT22;11079;51.092;3.458;2024-03-08T15:22:43;15.50;99.90
21834;DHT22;11079;51.092;3.458;2024-03-08T15:25:11;15.60;99.90
21834;DHT22;11079;51.092;3.458;2024-03-08T15:27:40;15.50;99.90
21834;DHT22;11079;51.092;3.458;2024-03-08T15:30:07;15.40;99.90
21834;DHT22;11079;51.092;3.458;2024-03-08T15:32:45;15.30;99.90
21834;DHT22;11079;51.092;3.458;2024-03-08T15:35:13;14.90;99.90
21834;DHT22;11079;51.092;3.458;2024-03-08T15:37:41;14.50;99.90
21834;DHT22;11079;51.092;3.458;2024-03-08T15:40:11;14.30;99.90
21834;DHT22;11079;51.092;3.458;2024-03-08T15:42:58;14.00;99.90
21834;DHT22;11079;51.092;3.458;2024-03-08T15:45:25;13.80;99.90
21834;DHT22;11079;51.092;3.458;2024-03-08T15:47:55;13.60;99.90
21834;DHT22;11079;51.092;3.458;2024-03-08T15:50:20;13.40;99.90
21834;DHT22;11079;51.092;3.458;2024-03-08T15:52:49;13.30;99.90